createdAt,value
2017-12-03T00:01:54.039Z,100848.40
2017-12-03T00:04:24.992Z,100852.37
2017-12-03T00:06:55.492Z,100843.30
2017-12-03T00:09:25.764Z,100844.05
2017-12-03T00:11:58.210Z,100845.56
2017-12-03T00:14:28.916Z,100847.66
2017-12-03T00:16:59.685Z,100841.88
2017-12-03T00:19:30.224Z,100845.92
2017-12-03T00:22:00.780Z,100843.05
2017-12-03T00:24:31.262Z,100845.58
2017-12-03T00:27:01.735Z,100847.14
2017-12-03T00:29:32.356Z,100857.98
2017-12-03T00:32:03.235Z,100851.72
2017-12-03T00:34:33.947Z,100852.98
2017-12-03T00:37:04.150Z,100852.27
2017-12-03T00:39:34.478Z,100844.56
2017-12-03T00:42:04.973Z,100849.75
2017-12-03T00:44:35.462Z,100849.47
2017-12-03T00:47:05.517Z,100844.84
2017-12-03T00:49:36.333Z,100848.72
2017-12-03T00:52:06.722Z,100855.08
2017-12-03T00:54:37.137Z,100851.11
2017-12-03T00:57:07.831Z,100854.88
2017-12-03T00:59:38.122Z,100850.94
2017-12-03T01:02:08.498Z,100849.05
2017-12-03T01:04:39.167Z,100852.48
2017-12-03T01:07:09.534Z,100852.85
2017-12-03T01:09:39.999Z,100843.70
2017-12-03T01:12:10.773Z,100849.08
2017-12-03T01:14:41.262Z,100845.98
2017-12-03T01:17:11.640Z,100854.14
2017-12-03T01:19:42.586Z,100847.59
2017-12-03T01:22:13.009Z,100845.81
2017-12-03T01:24:43.200Z,100846.23
2017-12-03T01:27:13.835Z,100842.47
2017-12-03T01:29:44.232Z,100837.47
2017-12-03T01:32:15.123Z,100833.22
2017-12-03T01:34:45.500Z,100837.70
2017-12-03T01:37:15.965Z,100842.89
2017-12-03T01:39:46.427Z,100834.56
2017-12-03T01:42:16.776Z,100847.91
2017-12-03T01:44:47.714Z,100850.17
2017-12-03T01:47:17.991Z,100852.72
2017-12-03T01:49:48.324Z,100859.55
2017-12-03T01:52:19.142Z,100857.88
2017-12-03T01:54:49.513Z,100857.37
2017-12-03T01:57:20.228Z,100857.40
2017-12-03T01:59:50.920Z,100849.39
2017-12-03T02:02:21.511Z,100842.55
2017-12-03T02:04:52.127Z,100843.20
2017-12-03T02:07:22.478Z,100836.52
2017-12-03T02:09:53.174Z,100831.00
2017-12-03T02:12:23.552Z,100829.64
2017-12-03T02:14:53.970Z,100825.58
2017-12-03T02:17:26.274Z,100826.55
2017-12-03T02:19:56.909Z,100826.73
2017-12-03T02:22:27.751Z,100823.91
2017-12-03T02:25:00.300Z,100820.45
2017-12-03T02:27:30.927Z,100813.25
2017-12-03T02:30:02.791Z,100808.89
2017-12-03T02:32:33.443Z,100808.98
2017-12-03T02:35:03.828Z,100814.55
2017-12-03T02:37:34.420Z,100804.86
2017-12-03T02:40:04.852Z,100810.80
2017-12-03T02:42:36.303Z,100806.91
2017-12-03T02:45:06.754Z,100797.17
2017-12-03T02:47:39.030Z,100799.53
2017-12-03T02:50:09.861Z,100813.20
2017-12-03T02:52:40.900Z,100810.92
2017-12-03T02:55:11.318Z,100811.09
2017-12-03T02:57:41.616Z,100807.77
2017-12-03T03:00:18.167Z,100804.24
2017-12-03T03:02:49.009Z,100799.11
2017-12-03T03:05:19.691Z,100804.02
2017-12-03T03:07:50.517Z,100812.04
2017-12-03T03:10:20.842Z,100805.58
2017-12-03T03:12:52.045Z,100803.37
2017-12-03T03:15:22.725Z,100807.45
2017-12-03T03:17:53.118Z,100808.28
2017-12-03T03:20:23.644Z,100812.84
2017-12-03T03:22:54.275Z,100800.14
2017-12-03T03:25:24.628Z,100797.31
2017-12-03T03:27:54.825Z,100797.28
2017-12-03T03:30:25.091Z,100803.08
2017-12-03T03:32:55.464Z,100797.22
2017-12-03T03:35:25.831Z,100793.73
2017-12-03T03:37:58.191Z,100802.34
2017-12-03T03:40:29.325Z,100812.72
2017-12-03T03:43:01.914Z,100814.64
2017-12-03T03:45:32.148Z,100809.31
2017-12-03T03:48:08.235Z,100807.45
2017-12-03T03:50:40.175Z,100805.28
2017-12-03T03:53:13.029Z,100805.89
2017-12-03T03:55:45.174Z,100803.28
2017-12-03T03:58:15.553Z,100806.51
2017-12-03T04:00:46.852Z,100807.34
2017-12-03T04:03:18.839Z,100807.64
2017-12-03T04:05:50.978Z,100807.02
2017-12-03T04:08:23.087Z,100808.67
2017-12-03T04:10:53.497Z,100809.50
2017-12-03T04:13:23.918Z,100803.14
2017-12-03T04:15:54.743Z,100803.92
2017-12-03T04:18:26.839Z,100805.17
2017-12-03T04:20:57.317Z,100809.09
2017-12-03T04:23:27.791Z,100815.67
2017-12-03T04:25:58.204Z,100809.70
2017-12-03T04:28:30.581Z,100810.16
2017-12-03T04:31:00.990Z,100817.59
2017-12-03T04:33:33.102Z,100810.02
2017-12-03T04:36:03.679Z,100808.77
2017-12-03T04:38:34.155Z,100803.57
2017-12-03T04:41:04.735Z,100810.77
2017-12-03T04:43:35.017Z,100810.99
2017-12-03T04:46:07.560Z,100809.83
2017-12-03T04:48:38.193Z,100804.50
2017-12-03T04:51:08.625Z,100808.99
2017-12-03T04:53:40.806Z,100800.25
2017-12-03T04:56:13.423Z,100793.34
2017-12-03T04:58:45.648Z,100796.05
2017-12-03T05:01:16.143Z,100800.11
2017-12-03T05:03:46.642Z,100799.83
2017-12-03T05:06:18.755Z,100790.27
2017-12-03T05:08:51.567Z,100785.87
2017-12-03T05:11:21.963Z,100797.41
2017-12-03T05:13:52.378Z,100800.67
2017-12-03T05:16:24.669Z,100800.11
2017-12-03T05:18:55.263Z,100798.48
2017-12-03T05:21:25.539Z,100796.61
2017-12-03T05:23:55.944Z,100790.42
2017-12-03T05:26:26.679Z,100794.17
2017-12-03T05:28:57.491Z,100801.70
2017-12-03T05:31:29.598Z,100794.22
2017-12-03T05:34:00.138Z,100802.34
2017-12-03T05:36:30.548Z,100803.70
2017-12-03T05:39:00.874Z,100806.19
2017-12-03T05:41:31.799Z,100809.41
2017-12-03T05:44:02.121Z,100808.99
2017-12-03T05:46:32.549Z,100813.67
2017-12-03T05:49:03.068Z,100813.34
2017-12-03T05:51:35.418Z,100806.18
2017-12-03T05:54:05.860Z,100812.73
2017-12-03T05:56:37.159Z,100811.11
2017-12-03T05:59:07.798Z,100804.48
2017-12-03T06:01:38.268Z,100804.59
2017-12-03T06:04:08.679Z,100798.47
2017-12-03T06:06:39.471Z,100796.74
2017-12-03T06:09:09.747Z,100787.76
2017-12-03T06:11:40.041Z,100791.61
2017-12-03T06:14:10.395Z,100785.63
2017-12-03T06:16:40.786Z,100788.47
2017-12-03T06:19:11.313Z,100786.19
2017-12-03T06:21:41.728Z,100789.95
2017-12-03T06:24:13.291Z,100783.18
2017-12-03T06:26:43.788Z,100784.12
2017-12-03T06:29:14.183Z,100778.59
2017-12-03T06:31:44.535Z,100783.80
2017-12-03T06:34:16.887Z,100786.70
2017-12-03T06:36:47.679Z,100787.53
2017-12-03T06:39:20.242Z,100784.63
2017-12-03T06:41:50.763Z,100788.47
2017-12-03T06:44:23.126Z,100790.05
2017-12-03T06:46:53.477Z,100791.28
2017-12-03T06:49:23.988Z,100781.39
2017-12-03T06:51:54.411Z,100787.92
2017-12-03T06:54:25.223Z,100791.78
2017-12-03T06:56:57.395Z,100793.52
2017-12-03T06:59:27.719Z,100798.17
2017-12-03T07:01:59.242Z,100796.05
2017-12-03T07:04:31.464Z,100801.70
2017-12-03T07:07:01.991Z,100792.02
2017-12-03T07:09:32.903Z,100799.34
2017-12-03T07:12:05.244Z,100797.77
2017-12-03T07:14:37.820Z,100800.15
2017-12-03T07:17:08.023Z,100794.44
2017-12-03T07:19:39.352Z,100795.70
2017-12-03T07:22:09.712Z,100799.44
2017-12-03T07:24:42.084Z,100795.98
2017-12-03T07:27:14.575Z,100797.25
2017-12-03T07:29:46.651Z,100809.77
2017-12-03T07:32:18.216Z,100805.59
2017-12-03T07:34:51.119Z,100813.70
2017-12-03T07:37:23.294Z,100815.25
2017-12-03T07:39:55.907Z,100827.30
2017-12-03T07:42:27.255Z,100824.56
2017-12-03T07:44:58.797Z,100821.98
2017-12-03T07:47:30.369Z,100821.27
2017-12-03T07:50:02.472Z,100835.23
2017-12-03T07:52:34.776Z,100834.84
2017-12-03T07:55:07.064Z,100825.48
2017-12-03T07:57:38.289Z,100829.14
2017-12-03T08:00:13.344Z,100826.43
2017-12-03T08:02:45.686Z,100826.00
2017-12-03T08:05:16.233Z,100824.74
2017-12-03T08:07:48.553Z,100829.65
2017-12-03T08:10:19.077Z,100829.36
2017-12-03T08:12:49.298Z,100832.78
2017-12-03T08:15:19.745Z,100826.01
2017-12-03T08:17:50.264Z,100823.20
2017-12-03T08:20:20.903Z,100824.75
2017-12-03T08:22:51.316Z,100824.74
2017-12-03T08:25:21.991Z,100828.20
2017-12-03T08:27:52.415Z,100834.30
2017-12-03T08:30:23.308Z,100829.98
2017-12-03T08:32:53.700Z,100824.40
2017-12-03T08:35:24.092Z,100830.45
2017-12-03T08:37:54.730Z,100831.85
2017-12-03T08:40:25.414Z,100832.55
2017-12-03T08:42:55.806Z,100833.97
2017-12-03T08:45:26.608Z,100831.16
2017-12-03T08:47:57.047Z,100832.72
2017-12-03T08:50:27.410Z,100832.88
2017-12-03T08:52:58.127Z,100841.73
2017-12-03T08:55:33.476Z,100842.57
2017-12-03T08:58:03.813Z,100837.92
2017-12-03T09:00:34.371Z,100835.46
2017-12-03T09:03:04.905Z,100841.02
2017-12-03T09:05:35.585Z,100841.12
2017-12-03T09:08:06.201Z,100833.73
2017-12-03T09:10:38.385Z,100829.64
2017-12-03T09:13:10.745Z,100833.27
2017-12-03T09:15:41.255Z,100830.44
2017-12-03T09:18:11.733Z,100830.13
2017-12-03T09:20:43.866Z,100824.37
2017-12-03T09:23:14.705Z,100830.11
2017-12-03T09:25:48.300Z,100830.61
2017-12-03T09:28:18.792Z,100827.18
2017-12-03T09:30:49.374Z,100830.23
2017-12-03T09:33:19.847Z,100824.13
2017-12-03T09:35:51.210Z,100824.72
2017-12-03T09:38:21.758Z,100827.01
2017-12-03T09:40:53.039Z,100826.38
2017-12-03T09:43:23.851Z,100827.03
2017-12-03T09:45:54.224Z,100829.45
2017-12-03T09:48:25.402Z,100827.25
2017-12-03T09:50:57.702Z,100820.09
2017-12-03T09:53:29.030Z,100816.64
2017-12-03T09:56:00.800Z,100817.05
2017-12-03T09:58:32.120Z,100819.33
2017-12-03T10:01:03.785Z,100814.55
2017-12-03T10:03:35.162Z,100813.40
2017-12-03T10:06:07.380Z,100812.27
2017-12-03T10:08:39.095Z,100807.36
2017-12-03T10:11:11.299Z,100806.78
2017-12-03T10:13:41.764Z,100809.89
2017-12-03T10:16:15.664Z,100804.14
2017-12-03T10:18:46.891Z,100802.09
2017-12-03T10:21:17.373Z,100798.16
2017-12-03T10:23:47.824Z,100798.81
2017-12-03T10:26:19.650Z,100802.77
2017-12-03T10:28:53.254Z,100800.80
2017-12-03T10:31:25.531Z,100795.81
2017-12-03T10:33:56.892Z,100791.88
2017-12-03T10:36:29.066Z,100786.78
2017-12-03T10:38:59.638Z,100785.08
2017-12-03T10:41:31.475Z,100788.97
2017-12-03T10:44:03.749Z,100790.09
2017-12-03T10:46:35.368Z,100784.81
2017-12-03T10:49:07.083Z,100789.20
2017-12-03T10:51:39.805Z,100780.44
2017-12-03T10:54:12.301Z,100775.42
2017-12-03T10:56:43.666Z,100772.11
2017-12-03T10:59:16.124Z,100764.49
2017-12-03T11:01:48.649Z,100758.47
2017-12-03T11:04:20.049Z,100769.81
2017-12-03T11:06:51.390Z,100766.33
2017-12-03T11:09:23.622Z,100758.48
2017-12-03T11:11:54.031Z,100755.67
2017-12-03T11:14:26.327Z,100749.90
2017-12-03T11:16:58.773Z,100743.03
2017-12-03T11:19:29.166Z,100749.59
2017-12-03T11:22:01.788Z,100745.63
2017-12-03T11:24:33.310Z,100750.56
2017-12-03T11:27:04.944Z,100741.06
2017-12-03T11:29:36.265Z,100738.55
2017-12-03T11:32:07.508Z,100737.63
2017-12-03T11:34:38.378Z,100733.89
2017-12-03T11:37:11.058Z,100728.80
2017-12-03T11:39:43.234Z,100727.20
2017-12-03T11:42:15.514Z,100722.42
2017-12-03T11:44:45.957Z,100719.82
2017-12-03T11:47:18.081Z,100715.98
2017-12-03T11:49:50.336Z,100709.81
2017-12-03T11:52:21.529Z,100711.27
2017-12-03T11:54:54.112Z,100710.36
2017-12-03T11:57:26.324Z,100708.88
2017-12-03T11:59:58.596Z,100696.49
2017-12-03T12:02:29.400Z,100700.22
2017-12-03T12:04:59.939Z,100700.86
2017-12-03T12:07:30.250Z,100697.91
2017-12-03T12:10:02.644Z,100686.33
2017-12-03T12:12:33.171Z,100690.63
2017-12-03T12:15:06.479Z,100692.57
2017-12-03T12:17:41.263Z,100691.73
2017-12-03T12:20:12.812Z,100688.75
2017-12-03T12:22:44.985Z,100685.63
2017-12-03T12:25:17.906Z,100684.89
2017-12-03T12:27:48.689Z,100680.55
2017-12-03T12:30:20.840Z,100691.06
2017-12-03T12:32:52.271Z,100686.59
2017-12-03T12:35:23.702Z,100689.92
2017-12-03T12:37:55.981Z,100689.41
2017-12-03T12:40:27.645Z,100693.48
2017-12-03T12:43:00.007Z,100685.03
2017-12-03T12:45:32.658Z,100686.80
2017-12-03T12:48:04.438Z,100683.36
2017-12-03T12:50:36.396Z,100686.70
2017-12-03T12:53:09.200Z,100686.29
2017-12-03T12:55:41.932Z,100689.41
2017-12-03T12:58:15.023Z,100687.97
2017-12-03T13:00:46.901Z,100683.13
2017-12-03T13:03:19.813Z,100678.80
2017-12-03T13:05:52.776Z,100682.52
2017-12-03T13:08:25.394Z,100665.77
2017-12-03T13:10:57.218Z,100664.20
2017-12-03T13:13:32.829Z,100664.37
2017-12-03T13:16:04.613Z,100659.91
2017-12-03T13:18:37.424Z,100664.50
2017-12-03T13:21:10.043Z,100668.17
2017-12-03T13:23:42.294Z,100659.95
2017-12-03T13:26:14.517Z,100659.20
2017-12-03T13:28:46.313Z,100664.49
2017-12-03T13:31:18.232Z,100655.75
2017-12-03T13:33:49.954Z,100656.27
2017-12-03T13:36:21.862Z,100653.85
2017-12-03T13:38:53.850Z,100648.86
2017-12-03T13:41:26.052Z,100648.56
2017-12-03T13:43:57.811Z,100648.70
2017-12-03T13:46:30.746Z,100642.77
2017-12-03T13:49:03.245Z,100641.42
2017-12-03T13:51:36.472Z,100640.05
2017-12-03T13:54:09.143Z,100643.97
2017-12-03T13:56:41.945Z,100645.42
2017-12-03T13:59:15.160Z,100640.54
2017-12-03T14:01:47.194Z,100643.19
2017-12-03T14:04:19.078Z,100635.64
2017-12-03T14:06:51.583Z,100640.43
2017-12-03T14:09:23.551Z,100638.39
2017-12-03T14:11:55.360Z,100640.69
2017-12-03T14:14:28.303Z,100636.13
2017-12-03T14:17:01.109Z,100632.72
2017-12-03T14:19:33.296Z,100631.37
2017-12-03T14:22:05.108Z,100623.33
2017-12-03T14:24:37.125Z,100620.44
2017-12-03T14:27:09.363Z,100627.09
2017-12-03T14:29:42.291Z,100630.27
2017-12-03T14:32:15.379Z,100630.64
2017-12-03T14:34:48.143Z,100619.94
2017-12-03T14:37:19.690Z,100627.78
2017-12-03T14:39:51.892Z,100626.23
2017-12-03T14:42:24.507Z,100626.52
2017-12-03T14:44:55.447Z,100629.30
2017-12-03T14:47:27.795Z,100626.62
2017-12-03T14:50:00.534Z,100632.42
2017-12-03T14:52:31.511Z,100629.95
2017-12-03T14:55:03.453Z,100627.88
2017-12-03T14:57:36.933Z,100629.89
2017-12-03T15:00:09.677Z,100631.69
2017-12-03T15:02:40.713Z,100623.05
2017-12-03T15:05:14.220Z,100625.11
2017-12-03T15:07:45.436Z,100625.53
2017-12-03T15:10:16.427Z,100619.80
2017-12-03T15:12:49.385Z,100624.08
2017-12-03T15:15:22.011Z,100628.03
2017-12-03T15:17:54.744Z,100624.49
2017-12-03T15:20:26.964Z,100624.17
2017-12-03T15:22:59.091Z,100621.36
2017-12-03T15:25:30.438Z,100620.02
2017-12-03T15:28:01.749Z,100623.78
2017-12-03T15:30:33.135Z,100623.20
2017-12-03T15:33:06.125Z,100619.66
2017-12-03T15:35:37.134Z,100627.47
2017-12-03T15:38:07.967Z,100626.06
2017-12-03T15:40:38.983Z,100622.66
2017-12-03T15:43:12.023Z,100619.38
2017-12-03T15:45:43.370Z,100617.81
2017-12-03T15:48:16.061Z,100620.91
2017-12-03T15:50:46.962Z,100621.42
2017-12-03T15:53:17.858Z,100630.84
2017-12-03T15:55:48.852Z,100632.53
2017-12-03T15:58:21.720Z,100625.95
2017-12-03T16:00:52.838Z,100633.79
2017-12-03T16:03:24.158Z,100625.42
2017-12-03T16:05:55.112Z,100622.61
2017-12-03T16:08:26.067Z,100622.53
2017-12-03T16:10:57.226Z,100623.55
2017-12-03T16:13:30.025Z,100623.05
2017-12-03T16:16:03.082Z,100628.56
2017-12-03T16:18:34.231Z,100636.99
2017-12-03T16:21:05.211Z,100629.09
2017-12-03T16:23:38.470Z,100629.65
2017-12-03T16:26:11.156Z,100630.90
2017-12-03T16:28:42.019Z,100634.33
2017-12-03T16:31:14.760Z,100639.24
2017-12-03T16:33:47.517Z,100630.48
2017-12-03T16:36:19.976Z,100637.64
2017-12-03T16:38:53.917Z,100630.22
2017-12-03T16:41:24.784Z,100639.08
2017-12-03T16:43:57.049Z,100637.86
2017-12-03T16:46:30.034Z,100636.34
2017-12-03T16:49:04.108Z,100636.53
2017-12-03T16:51:36.760Z,100639.77
2017-12-03T16:54:07.719Z,100632.70
2017-12-03T16:56:40.542Z,100635.09
2017-12-03T16:59:13.310Z,100631.95
2017-12-03T17:01:46.041Z,100637.30
2017-12-03T17:04:18.049Z,100636.59
2017-12-03T17:06:51.296Z,100637.30
2017-12-03T17:09:23.921Z,100642.11
2017-12-03T17:11:56.800Z,100639.19
2017-12-03T17:14:29.524Z,100638.16
2017-12-03T17:17:02.137Z,100632.55
2017-12-03T17:19:34.880Z,100623.61
2017-12-03T17:22:14.352Z,100627.31
2017-12-03T17:24:47.093Z,100632.97
2017-12-03T17:27:18.521Z,100634.01
2017-12-03T17:29:50.301Z,100636.06
2017-12-03T17:32:23.032Z,100635.96
2017-12-03T17:34:55.775Z,100640.78
2017-12-03T17:37:28.709Z,100647.94
2017-12-03T17:40:01.393Z,100650.25
2017-12-03T17:42:35.000Z,100641.63
2017-12-03T17:45:08.860Z,100645.99
2017-12-03T17:47:40.268Z,100651.16
2017-12-03T17:50:11.289Z,100638.23
2017-12-03T17:52:42.182Z,100643.83
2017-12-03T17:55:15.030Z,100646.48
2017-12-03T17:57:48.193Z,100646.58
2017-12-03T18:00:19.919Z,100651.36
2017-12-03T18:02:50.963Z,100653.97
2017-12-03T18:05:24.272Z,100653.89
2017-12-03T18:07:55.293Z,100657.86
2017-12-03T18:10:28.274Z,100660.06
2017-12-03T18:12:59.571Z,100664.73
2017-12-03T18:15:34.863Z,100669.74
2017-12-03T18:18:07.754Z,100677.48
2017-12-03T18:20:40.845Z,100682.49
2017-12-03T18:23:13.581Z,100682.66
2017-12-03T18:25:44.973Z,100685.48
2017-12-03T18:28:16.224Z,100681.98
2017-12-03T18:30:50.039Z,100686.70
2017-12-03T18:33:23.006Z,100692.21
2017-12-03T18:35:54.341Z,100692.40
2017-12-03T18:38:27.738Z,100696.88
2017-12-03T18:41:00.942Z,100698.75
2017-12-03T18:43:31.964Z,100700.44
2017-12-03T18:46:05.545Z,100700.77
2017-12-03T18:48:36.725Z,100705.34
2017-12-03T18:51:07.998Z,100705.13
2017-12-03T18:53:40.867Z,100701.67
2017-12-03T18:56:13.739Z,100708.16
2017-12-03T18:58:48.088Z,100709.62
2017-12-03T19:01:19.294Z,100712.20
2017-12-03T19:03:50.415Z,100705.73
2017-12-03T19:06:21.556Z,100715.00
2017-12-03T19:08:53.183Z,100708.25
2017-12-03T19:11:24.513Z,100710.70
2017-12-03T19:13:55.535Z,100709.96
2017-12-03T19:16:26.446Z,100713.77
2017-12-03T19:18:57.459Z,100714.35
2017-12-03T19:21:28.490Z,100709.50
2017-12-03T19:23:59.799Z,100710.02
2017-12-03T19:26:32.988Z,100703.57
2017-12-03T19:29:06.213Z,100705.21
2017-12-03T19:31:39.106Z,100705.76
2017-12-03T19:34:10.758Z,100703.66
2017-12-03T19:36:41.876Z,100709.09
2017-12-03T19:39:14.717Z,100716.60
2017-12-03T19:41:45.954Z,100721.37
2017-12-03T19:44:17.346Z,100719.92
2017-12-03T19:46:48.388Z,100725.56
2017-12-03T19:49:19.180Z,100714.83
2017-12-03T19:51:52.013Z,100717.23
2017-12-03T19:54:23.023Z,100714.81
2017-12-03T19:56:53.893Z,100707.81
2017-12-03T19:59:26.022Z,100704.09
2017-12-03T20:01:57.019Z,100710.07
2017-12-03T20:04:30.152Z,100715.56
2017-12-03T20:07:01.074Z,100717.94
2017-12-03T20:09:33.151Z,100712.59
2017-12-03T20:12:04.297Z,100712.41
2017-12-03T20:14:35.932Z,100720.95
2017-12-03T20:17:07.243Z,100724.50
2017-12-03T20:19:38.397Z,100727.73
2017-12-03T20:22:09.449Z,100741.83
2017-12-03T20:24:42.906Z,100742.44
2017-12-03T20:27:14.295Z,100740.66
2017-12-03T20:29:45.676Z,100745.34
2017-12-03T20:32:16.912Z,100735.56
2017-12-03T20:34:48.486Z,100740.66
2017-12-03T20:37:21.098Z,100732.73
2017-12-03T20:39:52.362Z,100736.50
2017-12-03T20:42:25.802Z,100739.91
2017-12-03T20:44:58.153Z,100736.17
2017-12-03T20:47:29.622Z,100733.98
2017-12-03T20:50:00.563Z,100738.14
2017-12-03T20:52:32.891Z,100735.87
2017-12-03T20:55:03.611Z,100727.84
2017-12-03T20:57:35.030Z,100732.30
2017-12-03T21:00:06.704Z,100724.77
2017-12-03T21:02:37.531Z,100729.82
2017-12-03T21:05:08.799Z,100723.56
2017-12-03T21:07:40.565Z,100728.15
2017-12-03T21:10:11.927Z,100741.31
2017-12-03T21:12:42.819Z,100729.31
2017-12-03T21:15:15.916Z,100736.38
2017-12-03T21:17:47.544Z,100741.27
2017-12-03T21:20:19.897Z,100740.34
2017-12-03T21:22:52.857Z,100741.08
2017-12-03T21:25:23.791Z,100744.11
2017-12-03T21:27:54.901Z,100749.92
2017-12-03T21:30:29.679Z,100745.24
2017-12-03T21:33:01.339Z,100739.50
2017-12-03T21:35:32.510Z,100740.24
2017-12-03T21:38:03.280Z,100745.33
2017-12-03T21:40:34.310Z,100750.60
2017-12-03T21:43:07.465Z,100751.45
2017-12-03T21:45:38.527Z,100740.46
2017-12-03T21:48:09.439Z,100737.56
2017-12-03T21:50:42.576Z,100735.88
2017-12-03T21:53:13.561Z,100742.53
2017-12-03T21:55:47.506Z,100738.47
2017-12-03T21:58:19.084Z,100739.59
2017-12-03T22:00:50.145Z,100745.95
2017-12-03T22:03:23.067Z,100751.08
2017-12-03T22:05:54.416Z,100759.21
2017-12-03T22:08:25.261Z,100767.95
2017-12-03T22:10:56.506Z,100773.38
2017-12-03T22:13:27.487Z,100767.21
2017-12-03T22:15:59.506Z,100757.34
2017-12-03T22:18:32.200Z,100755.34
2017-12-03T22:21:03.219Z,100758.69
2017-12-03T22:23:36.018Z,100752.30
2017-12-03T22:26:06.857Z,100753.34
2017-12-03T22:28:38.258Z,100758.45
2017-12-03T22:31:09.271Z,100765.63
2017-12-03T22:33:40.553Z,100764.08
2017-12-03T22:36:11.470Z,100769.70
2017-12-03T22:38:42.454Z,100772.95
2017-12-03T22:41:13.608Z,100765.94
2017-12-03T22:43:44.493Z,100780.02
2017-12-03T22:46:15.384Z,100784.73
2017-12-03T22:48:46.562Z,100779.53
2017-12-03T22:51:17.767Z,100786.60
2017-12-03T22:53:49.591Z,100779.53
2017-12-03T22:56:22.200Z,100785.05
2017-12-03T22:58:53.173Z,100790.79
2017-12-03T23:01:26.147Z,100791.92
2017-12-03T23:03:57.032Z,100791.92
2017-12-03T23:06:27.896Z,100800.89
2017-12-03T23:08:58.761Z,100803.80
2017-12-03T23:11:29.806Z,100804.02
2017-12-03T23:14:01.076Z,100800.26
2017-12-03T23:16:33.779Z,100805.14
2017-12-03T23:19:04.616Z,100797.62
2017-12-03T23:21:35.516Z,100795.98
2017-12-03T23:24:08.780Z,100799.86
2017-12-03T23:26:40.789Z,100801.51
2017-12-03T23:29:11.710Z,100800.21
2017-12-03T23:31:42.725Z,100795.52
2017-12-03T23:34:14.029Z,100805.67
2017-12-03T23:36:44.729Z,100799.31
2017-12-03T23:39:15.621Z,100801.92
2017-12-03T23:41:48.442Z,100800.89
2017-12-03T23:44:21.154Z,100801.62
2017-12-03T23:46:52.106Z,100805.47
2017-12-03T23:49:23.052Z,100806.53
2017-12-03T23:51:53.932Z,100799.95
2017-12-03T23:54:24.724Z,100801.62
2017-12-03T23:56:55.618Z,100792.86
2017-12-03T23:59:26.559Z,100794.73
